Rize — 9HA2781 — position and weather

sailwx.info

Track history (hours):
 
Tides and Currents Weather Stations Pressure Air Temp Water Temp Dewpoint Dewpoint Depression Visibility Wind Speed Wind Dir Waves Ship Positions

Rize

Last reported at 2016-May-02 03:32 UTC. Time now 2016-May-02 03:38 UTC.
Position N 51°58' E 004°07'.

Length 229 m; draft 14.2 m.

Type: Cargo ship. MMSI: 215677000.

Date/timePositionNaut miles runAvg speedWind from/ knotsBaromVisibWave heightAir tempDewpointWater temp
2016-May-02 03:32N 51°58' E 004°07'0 0.0
2016-May-02 02:29N 51°58' E 004°07'0 0.0
2016-May-02 01:32N 51°58' E 004°07'0 0.0
2016-May-02 00:32N 51°58' E 004°07'0 0.0
2016-May-01 23:32N 51°58' E 004°07'0 0.0
2016-May-01 22:32N 51°58' E 004°07'0 0.0
2016-May-01 21:32N 51°58' E 004°07'0 0.0
2016-May-01 20:32N 51°58' E 004°07'0 0.0
2016-May-01 19:32N 51°58' E 004°07'0 0.0
2016-May-01 18:32N 51°58' E 004°07'0 0.0
2016-May-01 17:32N 51°58' E 004°07'0 0.0
2016-May-01 16:32N 51°58' E 004°07'0 0.0
2016-May-01 15:32N 51°58' E 004°07'0 0.0
2016-May-01 14:32N 51°58' E 004°07'0 0.0
2016-May-01 13:32N 51°58' E 004°07'0 0.0
2016-May-01 12:32N 51°58' E 004°07'0 0.0
2016-May-01 11:29N 51°58' E 004°07'0 0.0
2016-May-01 10:32N 51°58' E 004°07'0 0.0
2016-May-01 09:32N 51°58' E 004°07'0 0.0
2016-May-01 08:32N 51°58' E 004°07'0 0.0
2016-May-01 07:32N 51°58' E 004°07'0 0.0
2016-May-01 06:32N 51°58' E 004°07'0 0.0
2016-May-01 05:32N 51°58' E 004°07'0 0.0
2016-May-01 04:32N 51°58' E 004°07'0 0.0
2016-May-01 03:32N 51°58' E 004°07'0 0.0
2016-May-01 02:32N 51°58' E 004°07'0 0.0
2016-May-01 01:32N 51°58' E 004°07'0 0.0
2016-May-01 00:32N 51°58' E 004°07'0 0.0
2016-Apr-30 23:31N 51°58' E 004°07'0 0.1
2016-Apr-30 22:33N 51°58' E 004°07'8 7.9
2016-Apr-30 21:33N 52°01' E 003°55'9 8.6
2016-Apr-30 20:32N 52°08' E 003°46'1110.2
2016-Apr-30 19:30N 52°19' E 003°48'1010.7
2016-Apr-30 18:33N 52°29' E 003°51'9211.1
2016-Apr-30 10:16N 53°53' E 004°51'810.7
2016-Apr-30 09:33N 54°00' E 004°55'1110.8
2016-Apr-30 08:33N 54°11' E 005°02'1110.7
2016-Apr-30 07:33N 54°21' E 005°08'273 9.6
2016-Apr-29 03:03N 57°52' E 010°19'611.1
2016-Apr-29 02:33N 57°53' E 010°29'1110.9
2016-Apr-29 01:33N 57°48' E 010°48'1111.1
2016-Apr-29 00:33N 57°40' E 011°03'1111.0
2016-Apr-28 23:33N 57°32' E 011°17'1110.6
2016-Apr-28 22:33N 57°24' E 011°29'1111.1
2016-Apr-28 21:33N 57°14' E 011°36'1111.1
2016-Apr-28 20:33N 57°03' E 011°43'1111.1
2016-Apr-28 19:33N 56°53' E 011°50'1010.0
2016-Apr-28 18:33N 56°43' E 011°51'85 9.4
2016-Apr-28 09:29N 55°22' E 011°02'1010.4
2016-Apr-28 08:33N 55°13' E 011°06'1010.0
2016-Apr-28 07:33N 55°03' E 010°60'1010.4
2016-Apr-28 06:33N 54°54' E 010°51'1110.7
2016-Apr-28 05:33N 54°44' E 010°47'10 9.6
2016-Apr-28 04:33N 54°37' E 010°58'1110.7
2016-Apr-28 03:33N 54°34' E 011°16'1211.7
2016-Apr-28 02:33N 54°29' E 011°34'1111.2
2016-Apr-28 01:33N 54°26' E 011°53'1110.7
2016-Apr-28 00:33N 54°27' E 012°11'1110.5
2016-Apr-27 23:33N 54°37' E 012°18'6811.3
2016-Apr-27 17:33N 55°05' E 014°05'1211.7
2016-Apr-27 16:33N 55°14' E 014°18'1211.5
2016-Apr-27 15:33N 55°23' E 014°31'1111.3
2016-Apr-27 14:33N 55°29' E 014°47'1211.8
2016-Apr-27 13:33N 55°35' E 015°06'1311.7
2016-Apr-27 12:25N 55°40' E 015°27'  
Track history (hours):
 
Tides and Currents Weather Stations Pressure Air Temp Water Temp Dewpoint Dewpoint Depression Visibility Wind Speed Wind Dir Waves Ship Positions

Rize

Last reported at 2016-May-02 03:32 UTC. Time now 2016-May-02 03:38 UTC.
Position N 51°58' E 004°07'.

Length 229 m; draft 14.2 m.

Type: Cargo ship. MMSI: 215677000.

Date/timePositionNaut miles runAvg speedWind from/ knotsBaromVisibWave heightAir tempDewpointWater temp
2016-May-02 03:32N 51°58' E 004°07'0 0.0
2016-May-02 02:29N 51°58' E 004°07'0 0.0
2016-May-02 01:32N 51°58' E 004°07'0 0.0
2016-May-02 00:32N 51°58' E 004°07'0 0.0
2016-May-01 23:32N 51°58' E 004°07'0 0.0
2016-May-01 22:32N 51°58' E 004°07'0 0.0
2016-May-01 21:32N 51°58' E 004°07'0 0.0
2016-May-01 20:32N 51°58' E 004°07'0 0.0
2016-May-01 19:32N 51°58' E 004°07'0 0.0
2016-May-01 18:32N 51°58' E 004°07'0 0.0
2016-May-01 17:32N 51°58' E 004°07'0 0.0
2016-May-01 16:32N 51°58' E 004°07'0 0.0
2016-May-01 15:32N 51°58' E 004°07'0 0.0
2016-May-01 14:32N 51°58' E 004°07'0 0.0
2016-May-01 13:32N 51°58' E 004°07'0 0.0
2016-May-01 12:32N 51°58' E 004°07'0 0.0
2016-May-01 11:29N 51°58' E 004°07'0 0.0
2016-May-01 10:32N 51°58' E 004°07'0 0.0
2016-May-01 09:32N 51°58' E 004°07'0 0.0
2016-May-01 08:32N 51°58' E 004°07'0 0.0
2016-May-01 07:32N 51°58' E 004°07'0 0.0
2016-May-01 06:32N 51°58' E 004°07'0 0.0
2016-May-01 05:32N 51°58' E 004°07'0 0.0
2016-May-01 04:32N 51°58' E 004°07'0 0.0
2016-May-01 03:32N 51°58' E 004°07'0 0.0
2016-May-01 02:32N 51°58' E 004°07'0 0.0
2016-May-01 01:32N 51°58' E 004°07'0 0.0
2016-May-01 00:32N 51°58' E 004°07'0 0.0
2016-Apr-30 23:31N 51°58' E 004°07'0 0.1
2016-Apr-30 22:33N 51°58' E 004°07'8 7.9
2016-Apr-30 21:33N 52°01' E 003°55'9 8.6
2016-Apr-30 20:32N 52°08' E 003°46'1110.2
2016-Apr-30 19:30N 52°19' E 003°48'1010.7
2016-Apr-30 18:33N 52°29' E 003°51'9211.1
2016-Apr-30 10:16N 53°53' E 004°51'810.7
2016-Apr-30 09:33N 54°00' E 004°55'1110.8
2016-Apr-30 08:33N 54°11' E 005°02'1110.7
2016-Apr-30 07:33N 54°21' E 005°08'273 9.6
2016-Apr-29 03:03N 57°52' E 010°19'611.1
2016-Apr-29 02:33N 57°53' E 010°29'1110.9
2016-Apr-29 01:33N 57°48' E 010°48'1111.1
2016-Apr-29 00:33N 57°40' E 011°03'1111.0
2016-Apr-28 23:33N 57°32' E 011°17'1110.6
2016-Apr-28 22:33N 57°24' E 011°29'1111.1
2016-Apr-28 21:33N 57°14' E 011°36'1111.1
2016-Apr-28 20:33N 57°03' E 011°43'1111.1
2016-Apr-28 19:33N 56°53' E 011°50'1010.0
2016-Apr-28 18:33N 56°43' E 011°51'85 9.4
2016-Apr-28 09:29N 55°22' E 011°02'1010.4
2016-Apr-28 08:33N 55°13' E 011°06'1010.0
2016-Apr-28 07:33N 55°03' E 010°60'1010.4
2016-Apr-28 06:33N 54°54' E 010°51'1110.7
2016-Apr-28 05:33N 54°44' E 010°47'10 9.6
2016-Apr-28 04:33N 54°37' E 010°58'1110.7
2016-Apr-28 03:33N 54°34' E 011°16'1211.7
2016-Apr-28 02:33N 54°29' E 011°34'1111.2
2016-Apr-28 01:33N 54°26' E 011°53'1110.7
2016-Apr-28 00:33N 54°27' E 012°11'1110.5
2016-Apr-27 23:33N 54°37' E 012°18'6811.3
2016-Apr-27 17:33N 55°05' E 014°05'1211.7
2016-Apr-27 16:33N 55°14' E 014°18'1211.5
2016-Apr-27 15:33N 55°23' E 014°31'1111.3
2016-Apr-27 14:33N 55°29' E 014°47'1211.8
2016-Apr-27 13:33N 55°35' E 015°06'1311.7
2016-Apr-27 12:25N 55°40' E 015°27'  

Dump ship's entire track history